Time;durP1;ratioP1;P1;durP2;ratioP2;P2;SDS_P1;SDS_P2;PMS_P1;PMS_P2;Temp;Humidity;BMP_temperature;BMP_pressure;BME280_temperature;BME280_humidity;BME280_pressure;Samples;Min_cycle;Max_cycle;Signal;HPM_P1;HPM_P2
2023/12/08 00:02:19;;;;;;;0.90;0.90;;;;;;;;;;5038001;28;20622;-91
2023/12/08 00:04:46;;;;;;;3.23;2.43;;;;;;;;;;5043898;28;20214;-90
2023/12/08 00:07:13;;;;;;;3.00;1.97;;;;;;;;;;5043514;28;20214;-91
2023/12/08 00:09:40;;;;;;;1.17;1.07;;;;;;;;;;5035939;28;20254;-91
2023/12/08 00:12:08;;;;;;;0.90;0.90;;;;;;;;;;5050451;28;20241;-91
2023/12/08 00:14:35;;;;;;;1.07;1.07;;;;;;;;;;5037032;28;20326;-91
2023/12/08 00:17:03;;;;;;;1.10;1.00;;;;;;;;;;5049720;28;20229;-91
2023/12/08 00:19:29;;;;;;;0.80;0.80;;;;;;;;;;5036995;28;20201;-91
2023/12/08 00:21:56;;;;;;;2.03;1.87;;;;;;;;;;5037373;28;20210;-91
2023/12/08 00:24:23;;;;;;;3.30;2.80;;;;;;;;;;5030392;28;20214;-91
2023/12/08 00:26:51;;;;;;;2.97;1.33;;;;;;;;;;5043559;28;20210;-91
2023/12/08 00:29:19;;;;;;;9.43;6.03;;;;;;;;;;5030247;28;20206;-91
2023/12/08 00:31:46;;;;;;;1.70;1.37;;;;;;;;;;5043202;28;20733;-91
2023/12/08 00:34:13;;;;;;;0.73;0.73;;;;;;;;;;5037573;28;20210;-91
2023/12/08 00:36:41;;;;;;;1.60;1.50;;;;;;;;;;5035510;27;20313;-90
2023/12/08 00:39:08;;;;;;;2.90;2.60;;;;;;;;;;5038309;28;20238;-91
2023/12/08 00:41:35;;;;;;;2.50;2.20;;;;;;;;;;5021700;28;20726;-90
2023/12/08 00:44:03;;;;;;;0.90;0.90;;;;;;;;;;5037948;28;20214;-91
2023/12/08 00:46:32;;;;;;;4.07;2.00;;;;;;;;;;5036867;28;20259;-91
2023/12/08 00:48:59;;;;;;;3.67;2.50;;;;;;;;;;5041167;28;20667;-91
2023/12/08 00:51:26;;;;;;;1.20;1.10;;;;;;;;;;5029609;28;20217;-91
2023/12/08 00:53:52;;;;;;;0.80;0.80;;;;;;;;;;5039117;27;20217;-92
2023/12/08 00:56:19;;;;;;;0.90;0.90;;;;;;;;;;5033749;28;20210;-91
2023/12/08 00:58:46;;;;;;;1.27;0.70;;;;;;;;;;5029753;28;20211;-91
2023/12/08 01:01:13;;;;;;;0.77;0.77;;;;;;;;;;5029323;28;20245;-91
2023/12/08 01:03:42;;;;;;;0.80;0.80;;;;;;;;;;5029993;28;20203;-91
2023/12/08 01:06:08;;;;;;;5.43;3.50;;;;;;;;;;5043184;28;20214;-91
2023/12/08 01:08:36;;;;;;;1.13;1.13;;;;;;;;;;5039564;28;20218;-91
2023/12/08 01:11:07;;;;;;;1.80;1.70;;;;;;;;;;5045682;28;20234;-90
2023/12/08 01:13:34;;;;;;;1.00;1.00;;;;;;;;;;5029854;28;20214;-92
2023/12/08 01:16:01;;;;;;;3.33;2.83;;;;;;;;;;5016072;28;20214;-91
2023/12/08 01:18:28;;;;;;;2.20;2.00;;;;;;;;;;5029363;28;20234;-91
2023/12/08 01:20:56;;;;;;;2.13;1.77;;;;;;;;;;5041791;28;20209;-91
2023/12/08 01:23:23;;;;;;;1.80;1.57;;;;;;;;;;5041002;28;20209;-91
2023/12/08 01:25:50;;;;;;;0.67;0.67;;;;;;;;;;5044674;27;20211;-91
2023/12/08 01:28:17;;;;;;;0.90;0.90;;;;;;;;;;5029320;28;20574;-91
2023/12/08 01:30:43;;;;;;;0.70;0.70;;;;;;;;;;5042696;28;20556;-91
2023/12/08 01:33:10;;;;;;;0.80;0.80;;;;;;;;;;5029408;28;20230;-91
2023/12/08 01:35:37;;;;;;;0.87;0.87;;;;;;;;;;5042514;28;20213;-91
2023/12/08 01:38:05;;;;;;;0.90;0.90;;;;;;;;;;5041520;28;20236;-92
2023/12/08 01:40:32;;;;;;;2.00;1.80;;;;;;;;;;5035518;28;20213;-91
2023/12/08 01:42:59;;;;;;;1.00;1.00;;;;;;;;;;5036860;28;20202;-91
2023/12/08 01:45:26;;;;;;;1.07;0.97;;;;;;;;;;5042986;28;20207;-91
2023/12/08 01:47:53;;;;;;;6.07;3.43;;;;;;;;;;5041585;28;20217;-91
2023/12/08 01:50:20;;;;;;;1.93;1.73;;;;;;;;;;5035960;28;20269;-92
2023/12/08 01:52:47;;;;;;;10.47;5.40;;;;;;;;;;5049417;28;20633;-91
2023/12/08 01:55:16;;;;;;;8.30;5.30;;;;;;;;;;5042567;28;20210;-92
2023/12/08 01:57:43;;;;;;;4.30;2.73;;;;;;;;;;5042326;28;20580;-91
2023/12/08 02:00:11;;;;;;;1.77;1.67;;;;;;;;;;5029204;28;20211;-91
2023/12/08 02:02:38;;;;;;;1.37;1.27;;;;;;;;;;5029058;28;20211;-91
2023/12/08 02:05:06;;;;;;;3.80;3.00;;;;;;;;;;5036905;28;20210;-91
2023/12/08 02:07:34;;;;;;;24.03;14.93;;;;;;;;;;5046639;28;20318;-91
2023/12/08 02:10:01;;;;;;;6.80;4.87;;;;;;;;;;5020736;28;20212;-91
2023/12/08 02:12:30;;;;;;;9.57;5.80;;;;;;;;;;5036510;28;20238;-90
2023/12/08 02:14:58;;;;;;;1.90;1.53;;;;;;;;;;5028798;28;20283;-91
2023/12/08 02:17:30;;;;;;;1.23;1.13;;;;;;;;;;5042246;28;20230;-91
2023/12/08 02:19:57;;;;;;;2.70;1.93;;;;;;;;;;5028468;28;20241;-90
2023/12/08 02:22:24;;;;;;;1.50;1.40;;;;;;;;;;5028914;28;20210;-91
2023/12/08 02:24:53;;;;;;;0.80;0.80;;;;;;;;;;5038352;28;20210;-90
2023/12/08 02:27:19;;;;;;;1.20;1.07;;;;;;;;;;5035319;28;20214;-91
2023/12/08 02:29:46;;;;;;;0.77;0.77;;;;;;;;;;5048322;28;20210;-91
2023/12/08 02:32:22;;;;;;;0.60;0.60;;;;;;;;;;5044330;28;20207;-91
2023/12/08 02:34:50;;;;;;;1.43;1.33;;;;;;;;;;5031729;28;20210;-91
2023/12/08 02:37:17;;;;;;;2.10;1.00;;;;;;;;;;5045036;28;20222;-90
2023/12/08 02:39:48;;;;;;;0.77;0.77;;;;;;;;;;5031898;28;20650;-92
2023/12/08 02:42:16;;;;;;;1.23;1.20;;;;;;;;;;5050729;28;20210;-92
2023/12/08 02:44:43;;;;;;;0.90;0.90;;;;;;;;;;5038693;28;20206;-91
2023/12/08 02:47:10;;;;;;;1.93;0.90;;;;;;;;;;5044866;28;20271;-91
2023/12/08 02:49:37;;;;;;;1.00;1.00;;;;;;;;;;5031899;28;20210;-91
2023/12/08 02:52:04;;;;;;;0.80;0.80;;;;;;;;;;5038936;28;20209;-91
2023/12/08 02:54:31;;;;;;;1.03;0.93;;;;;;;;;;5050802;28;20230;-92
2023/12/08 02:56:58;;;;;;;0.87;0.87;;;;;;;;;;5031703;28;20213;-91
2023/12/08 02:59:26;;;;;;;1.07;1.07;;;;;;;;;;5045371;28;20216;-91
2023/12/08 03:01:53;;;;;;;1.83;1.60;;;;;;;;;;5040067;28;20210;-91
2023/12/08 03:04:20;;;;;;;0.90;0.90;;;;;;;;;;5038259;28;20218;-91
2023/12/08 03:06:46;;;;;;;4.37;2.73;;;;;;;;;;5043188;28;20217;-90
2023/12/08 03:09:14;;;;;;;3.47;2.43;;;;;;;;;;5045817;28;20205;-91
2023/12/08 03:11:40;;;;;;;2.30;1.50;;;;;;;;;;5042994;28;20330;-91
2023/12/08 03:14:07;;;;;;;1.43;1.33;;;;;;;;;;5046280;28;20210;-91
2023/12/08 03:16:35;;;;;;;0.90;0.90;;;;;;;;;;5051200;28;20209;-91
2023/12/08 03:19:05;;;;;;;1.13;1.13;;;;;;;;;;5037820;28;20247;-91
2023/12/08 03:21:32;;;;;;;1.30;1.20;;;;;;;;;;5051099;28;20214;-91
2023/12/08 03:23:59;;;;;;;2.10;1.77;;;;;;;;;;5047727;28;20210;-91
2023/12/08 03:26:26;;;;;;;1.23;1.23;;;;;;;;;;5040752;28;20210;-91
2023/12/08 03:28:52;;;;;;;1.10;1.10;;;;;;;;;;5038134;28;20214;-92
2023/12/08 03:31:23;;;;;;;1.50;1.40;;;;;;;;;;5041238;28;20215;-91
2023/12/08 03:33:52;;;;;;;1.40;1.30;;;;;;;;;;5043970;28;20269;-92
2023/12/08 03:36:19;;;;;;;1.20;1.20;;;;;;;;;;5042213;28;20665;-91
2023/12/08 03:38:45;;;;;;;1.23;1.13;;;;;;;;;;5046243;28;20232;-92
2023/12/08 03:41:12;;;;;;;1.37;1.27;;;;;;;;;;5031038;28;20221;-91
2023/12/08 03:43:39;;;;;;;1.10;1.10;;;;;;;;;;5048407;28;20209;-92
2023/12/08 03:46:07;;;;;;;1.50;1.40;;;;;;;;;;5039513;28;20218;-91
2023/12/08 03:48:35;;;;;;;1.77;1.67;;;;;;;;;;5043960;28;20681;-91
2023/12/08 03:51:04;;;;;;;1.70;1.60;;;;;;;;;;5031117;28;20210;-92
2023/12/08 03:53:31;;;;;;;1.60;1.50;;;;;;;;;;5036773;28;20216;-92
2023/12/08 03:55:58;;;;;;;3.00;1.80;;;;;;;;;;5050419;28;20217;-91
2023/12/08 03:58:24;;;;;;;2.10;1.90;;;;;;;;;;5037246;28;20225;-92
2023/12/08 04:00:51;;;;;;;2.50;2.30;;;;;;;;;;5050931;27;20217;-92
2023/12/08 04:03:18;;;;;;;2.80;2.30;;;;;;;;;;5017209;28;20211;-91
2023/12/08 04:05:45;;;;;;;2.90;2.60;;;;;;;;;;5043972;28;20673;-91
2023/12/08 04:08:13;;;;;;;2.67;2.43;;;;;;;;;;5037715;28;20202;-91
2023/12/08 04:10:40;;;;;;;1.40;1.30;;;;;;;;;;5036961;28;20211;-90
2023/12/08 04:13:07;;;;;;;1.27;1.27;;;;;;;;;;5024686;28;20217;-91
2023/12/08 04:15:34;;;;;;;1.60;1.50;;;;;;;;;;5049672;28;20214;-90
2023/12/08 04:18:01;;;;;;;1.63;1.53;;;;;;;;;;5035607;28;20280;-92
2023/12/08 04:20:28;;;;;;;1.43;1.33;;;;;;;;;;5049211;28;20231;-90
2023/12/08 04:22:55;;;;;;;1.77;1.67;;;;;;;;;;5037350;28;20202;-89
2023/12/08 04:25:23;;;;;;;1.90;1.80;;;;;;;;;;5036245;28;20594;-89
2023/12/08 04:27:50;;;;;;;2.17;2.00;;;;;;;;;;5049642;28;20206;-87
2023/12/08 04:30:17;;;;;;;1.80;1.70;;;;;;;;;;5036180;28;20202;-87
2023/12/08 04:32:45;;;;;;;1.50;1.40;;;;;;;;;;5053878;28;20206;-85
2023/12/08 04:35:12;;;;;;;2.50;1.87;;;;;;;;;;5020555;28;20589;-87
2023/12/08 04:37:39;;;;;;;2.53;2.33;;;;;;;;;;5042751;28;20560;-84
2023/12/08 04:40:07;;;;;;;2.87;2.30;;;;;;;;;;5048493;28;20203;-85
2023/12/08 04:42:38;;;;;;;2.70;2.30;;;;;;;;;;5040772;28;20673;-85
2023/12/08 04:45:06;;;;;;;2.60;2.40;;;;;;;;;;5037062;28;20230;-88
2023/12/08 04:47:35;;;;;;;1.97;1.87;;;;;;;;;;5060671;28;20204;-86
2023/12/08 04:50:06;;;;;;;1.80;1.70;;;;;;;;;;5049810;28;20226;-86
2023/12/08 04:52:33;;;;;;;2.00;1.80;;;;;;;;;;5051523;28;20216;-88
2023/12/08 04:55:04;;;;;;;1.90;1.70;;;;;;;;;;5053470;28;20213;-85
2023/12/08 04:57:31;;;;;;;1.90;1.80;;;;;;;;;;5053583;28;20217;-86
2023/12/08 04:59:59;;;;;;;2.30;2.10;;;;;;;;;;5053419;28;20206;-86
2023/12/08 05:02:26;;;;;;;1.40;1.30;;;;;;;;;;5042115;28;20213;-88
2023/12/08 05:04:53;;;;;;;1.60;1.50;;;;;;;;;;5039831;28;20317;-87
2023/12/08 05:07:20;;;;;;;6.00;5.40;;;;;;;;;;5041723;27;20213;-87
2023/12/08 05:09:46;;;;;;;1.63;1.53;;;;;;;;;;5042192;28;20693;-87
2023/12/08 05:12:13;;;;;;;3.03;2.73;;;;;;;;;;5042456;28;20242;-87
2023/12/08 05:14:40;;;;;;;2.00;1.90;;;;;;;;;;5029632;28;20214;-86
2023/12/08 05:17:08;;;;;;;4.70;3.00;;;;;;;;;;5029835;28;20585;-88
2023/12/08 05:19:35;;;;;;;1.80;1.70;;;;;;;;;;5022928;28;20583;-89
2023/12/08 05:22:03;;;;;;;1.70;1.60;;;;;;;;;;5049055;28;20217;-87
2023/12/08 05:24:30;;;;;;;2.40;2.20;;;;;;;;;;5042309;28;20242;-87
2023/12/08 05:26:57;;;;;;;1.73;1.63;;;;;;;;;;5042757;28;20217;-88
2023/12/08 05:29:23;;;;;;;1.93;1.73;;;;;;;;;;5036287;28;20213;-88
2023/12/08 05:31:50;;;;;;;2.00;1.87;;;;;;;;;;5034861;28;20210;-87
2023/12/08 05:34:18;;;;;;;6.67;1.90;;;;;;;;;;5036631;28;20209;-87
2023/12/08 05:36:45;;;;;;;3.80;1.90;;;;;;;;;;5035594;28;20206;-87
2023/12/08 05:39:12;;;;;;;1.70;1.60;;;;;;;;;;5040983;28;20226;-88
2023/12/08 05:41:39;;;;;;;2.10;2.00;;;;;;;;;;5030214;28;20592;-88
2023/12/08 05:44:06;;;;;;;1.67;1.57;;;;;;;;;;5048541;28;20213;-87
2023/12/08 05:46:32;;;;;;;2.10;2.00;;;;;;;;;;5047234;28;20213;-87
2023/12/08 05:48:59;;;;;;;2.63;1.97;;;;;;;;;;5037468;28;20598;-88
2023/12/08 05:51:27;;;;;;;1.60;1.50;;;;;;;;;;5035695;27;20222;-88
2023/12/08 05:53:54;;;;;;;2.33;1.90;;;;;;;;;;5040269;28;20211;-89
2023/12/08 05:56:21;;;;;;;1.77;1.67;;;;;;;;;;5028959;28;20206;-88
2023/12/08 05:58:48;;;;;;;1.90;1.80;;;;;;;;;;5037687;28;20732;-87
2023/12/08 06:01:19;;;;;;;2.00;1.90;;;;;;;;;;5046549;28;20590;-86
2023/12/08 06:03:46;;;;;;;2.13;1.93;;;;;;;;;;5028993;28;20249;-87
2023/12/08 06:06:13;;;;;;;3.57;3.27;;;;;;;;;;5031473;28;20202;-88
2023/12/08 06:08:41;;;;;;;2.10;1.90;;;;;;;;;;5052029;28;20206;-87
2023/12/08 06:11:08;;;;;;;1.80;1.70;;;;;;;;;;5035332;28;20295;-87
2023/12/08 06:13:35;;;;;;;2.10;1.90;;;;;;;;;;5032473;28;20669;-87
2023/12/08 06:16:03;;;;;;;1.77;1.67;;;;;;;;;;5045827;28;20217;-87
2023/12/08 06:18:31;;;;;;;2.10;1.90;;;;;;;;;;5032490;28;20324;-87
2023/12/08 06:20:58;;;;;;;2.03;1.77;;;;;;;;;;5045170;28;20211;-87
2023/12/08 06:23:24;;;;;;;1.73;1.63;;;;;;;;;;5032405;28;20711;-89
2023/12/08 06:25:53;;;;;;;2.10;1.90;;;;;;;;;;5036798;28;20628;-88
2023/12/08 06:28:19;;;;;;;2.40;2.07;;;;;;;;;;5040341;28;20211;-86
2023/12/08 06:30:47;;;;;;;2.40;2.20;;;;;;;;;;5049475;28;20217;-87
2023/12/08 06:33:14;;;;;;;2.03;1.90;;;;;;;;;;5051773;28;20209;-87
2023/12/08 06:35:40;;;;;;;1.70;1.60;;;;;;;;;;5033164;28;20218;-87
2023/12/08 06:38:07;;;;;;;2.37;2.17;;;;;;;;;;5043442;28;20206;-87
2023/12/08 06:40:34;;;;;;;2.37;2.17;;;;;;;;;;5051223;28;20224;-88
2023/12/08 06:43:05;;;;;;;2.27;2.07;;;;;;;;;;5039660;28;20217;-88
2023/12/08 06:45:31;;;;;;;4.30;2.60;;;;;;;;;;5045387;28;20219;-87
2023/12/08 06:47:58;;;;;;;3.70;2.33;;;;;;;;;;5045040;28;20202;-87
2023/12/08 06:50:25;;;;;;;1.93;1.83;;;;;;;;;;5025536;28;20209;-87
2023/12/08 06:52:52;;;;;;;2.70;2.50;;;;;;;;;;5050947;27;20228;-87
2023/12/08 06:55:19;;;;;;;2.40;2.20;;;;;;;;;;5031812;28;20593;-87
2023/12/08 06:57:45;;;;;;;2.30;2.10;;;;;;;;;;5031861;28;20272;-87
2023/12/08 07:00:18;;;;;;;2.67;2.47;;;;;;;;;;5044300;28;20233;-87
2023/12/08 07:02:45;;;;;;;2.60;2.40;;;;;;;;;;5032388;28;20206;-88
2023/12/08 07:05:19;;;;;;;2.37;2.20;;;;;;;;;;5051291;27;20691;-88
2023/12/08 07:07:46;;;;;;;2.50;2.30;;;;;;;;;;5051664;28;20258;-87
2023/12/08 07:10:13;;;;;;;8.90;5.90;;;;;;;;;;5042026;28;20211;-89
2023/12/08 07:12:40;;;;;;;3.67;2.83;;;;;;;;;;5030986;28;20235;-87
2023/12/08 07:15:07;;;;;;;4.20;2.93;;;;;;;;;;5040502;28;20217;-87
2023/12/08 07:17:35;;;;;;;2.10;1.83;;;;;;;;;;5050776;28;20292;-88
2023/12/08 07:20:06;;;;;;;5.53;3.77;;;;;;;;;;5040082;28;20241;-87
2023/12/08 07:22:32;;;;;;;2.93;2.63;;;;;;;;;;5030913;28;20207;-88
2023/12/08 07:24:59;;;;;;;4.60;4.13;;;;;;;;;;5042359;28;20672;-86
2023/12/08 07:27:26;;;;;;;4.83;4.33;;;;;;;;;;5050607;28;20198;-89
2023/12/08 07:29:53;;;;;;;5.47;4.37;;;;;;;;;;5039917;28;20210;-88
2023/12/08 07:32:20;;;;;;;2.90;2.60;;;;;;;;;;5034951;28;20208;-88
2023/12/08 07:34:48;;;;;;;3.90;3.10;;;;;;;;;;5039814;28;20206;-88
2023/12/08 07:37:16;;;;;;;2.57;2.37;;;;;;;;;;5035706;27;20238;-87
2023/12/08 07:39:42;;;;;;;2.37;2.17;;;;;;;;;;5050687;28;20226;-88
2023/12/08 07:42:10;;;;;;;2.53;2.33;;;;;;;;;;5050703;28;20210;-88
2023/12/08 07:44:37;;;;;;;2.80;2.60;;;;;;;;;;5038191;28;20203;-87
2023/12/08 07:47:04;;;;;;;2.57;2.37;;;;;;;;;;5036762;28;20205;-87
2023/12/08 07:49:31;;;;;;;1.93;1.83;;;;;;;;;;5050363;28;20236;-88
2023/12/08 07:52:00;;;;;;;2.70;2.50;;;;;;;;;;5044098;28;20207;-88
2023/12/08 07:54:31;;;;;;;2.47;2.27;;;;;;;;;;5030872;28;20278;-87
2023/12/08 07:56:58;;;;;;;2.47;1.93;;;;;;;;;;5025633;28;20210;-87
2023/12/08 07:59:25;;;;;;;4.47;2.30;;;;;;;;;;5036714;28;20229;-87
2023/12/08 08:01:52;;;;;;;2.70;2.37;;;;;;;;;;5042950;28;20598;-87
2023/12/08 08:04:19;;;;;;;2.03;1.93;;;;;;;;;;5044499;28;20688;-87
2023/12/08 08:06:47;;;;;;;2.20;1.90;;;;;;;;;;5042489;28;20210;-88
2023/12/08 08:09:17;;;;;;;2.23;2.03;;;;;;;;;;5043861;28;20296;-87
2023/12/08 08:11:44;;;;;;;2.53;2.33;;;;;;;;;;5039007;28;20290;-87
2023/12/08 08:14:11;;;;;;;2.27;2.07;;;;;;;;;;5034166;28;20217;-88
2023/12/08 08:16:38;;;;;;;3.20;1.90;;;;;;;;;;5030396;28;20210;-89
2023/12/08 08:19:05;;;;;;;2.10;1.93;;;;;;;;;;5032807;28;20217;-86
2023/12/08 08:21:32;;;;;;;1.90;1.80;;;;;;;;;;5049995;28;20217;-87
2023/12/08 08:23:59;;;;;;;1.73;1.63;;;;;;;;;;5050097;28;20202;-86
2023/12/08 08:26:27;;;;;;;1.97;1.87;;;;;;;;;;5039968;28;20219;-85
2023/12/08 08:28:54;;;;;;;1.83;1.73;;;;;;;;;;5034058;28;20209;-87
2023/12/08 08:31:21;;;;;;;2.03;1.83;;;;;;;;;;5038538;28;20214;-87
2023/12/08 08:33:48;;;;;;;2.17;2.00;;;;;;;;;;5047406;28;20699;-87
2023/12/08 08:36:15;;;;;;;1.83;1.73;;;;;;;;;;5049977;28;20212;-87
2023/12/08 08:38:42;;;;;;;1.60;1.50;;;;;;;;;;5049473;28;20202;-87
2023/12/08 08:41:09;;;;;;;1.77;1.67;;;;;;;;;;5050425;27;20652;-87
2023/12/08 08:43:37;;;;;;;1.70;1.60;;;;;;;;;;5036491;28;20217;-87
2023/12/08 08:46:04;;;;;;;1.50;1.40;;;;;;;;;;5037538;28;20203;-87
2023/12/08 08:48:31;;;;;;;1.80;1.70;;;;;;;;;;5035458;28;20224;-86
2023/12/08 08:50:58;;;;;;;1.67;1.57;;;;;;;;;;5049539;28;20206;-88
2023/12/08 08:53:25;;;;;;;2.27;1.80;;;;;;;;;;5043911;27;20218;-87
2023/12/08 08:55:51;;;;;;;1.93;1.43;;;;;;;;;;5029460;28;20207;-87
2023/12/08 08:58:18;;;;;;;1.20;1.20;;;;;;;;;;5049047;28;20214;-87
2023/12/08 09:00:46;;;;;;;1.47;1.37;;;;;;;;;;5036587;28;20230;-88
2023/12/08 09:03:13;;;;;;;1.80;1.70;;;;;;;;;;5010199;28;20388;-88
2023/12/08 09:05:41;;;;;;;1.60;1.47;;;;;;;;;;5040137;28;20202;-87
2023/12/08 09:08:09;;;;;;;1.17;1.17;;;;;;;;;;5010138;28;20207;-88
2023/12/08 09:10:35;;;;;;;2.10;1.97;;;;;;;;;;5024782;28;20238;-88
2023/12/08 09:13:05;;;;;;;1.60;1.50;;;;;;;;;;5042975;28;20210;-87
2023/12/08 09:15:33;;;;;;;1.50;1.40;;;;;;;;;;5029636;28;20623;-88
2023/12/08 09:18:04;;;;;;;1.37;1.37;;;;;;;;;;5023337;28;20206;-87
2023/12/08 09:20:31;;;;;;;1.73;1.63;;;;;;;;;;5047942;28;20226;-89
2023/12/08 09:22:57;;;;;;;1.70;1.60;;;;;;;;;;5037029;28;20300;-88
2023/12/08 09:25:24;;;;;;;1.60;1.50;;;;;;;;;;5048507;28;20210;-88
2023/12/08 09:27:51;;;;;;;2.40;1.80;;;;;;;;;;5036802;28;20270;-87
2023/12/08 09:30:17;;;;;;;3.60;3.30;;;;;;;;;;5047846;28;20210;-87
2023/12/08 09:32:44;;;;;;;3.83;3.40;;;;;;;;;;5029208;28;20210;-87
2023/12/08 09:35:12;;;;;;;3.80;2.80;;;;;;;;;;5044088;28;20213;-88
2023/12/08 09:37:39;;;;;;;2.73;2.40;;;;;;;;;;5040548;28;20566;-88
2023/12/08 09:40:08;;;;;;;2.23;2.03;;;;;;;;;;5042989;28;20229;-87
2023/12/08 09:42:37;;;;;;;3.40;3.00;;;;;;;;;;5039758;28;20676;-87
2023/12/08 09:45:05;;;;;;;2.33;1.90;;;;;;;;;;5052440;28;20211;-88
2023/12/08 09:47:34;;;;;;;2.30;2.17;;;;;;;;;;5042902;28;20602;-88
2023/12/08 09:50:03;;;;;;;1.67;1.53;;;;;;;;;;5032808;28;20207;-88
2023/12/08 09:52:33;;;;;;;1.80;1.70;;;;;;;;;;5043203;28;20282;-86
2023/12/08 09:55:00;;;;;;;1.50;1.40;;;;;;;;;;5048454;28;20214;-88
2023/12/08 09:57:27;;;;;;;1.97;1.63;;;;;;;;;;5032258;28;20217;-87
2023/12/08 09:59:57;;;;;;;3.20;2.90;;;;;;;;;;5050243;28;20241;-88
2023/12/08 10:02:23;;;;;;;1.83;1.73;;;;;;;;;;5040394;28;20199;-87
2023/12/08 10:04:50;;;;;;;1.60;1.50;;;;;;;;;;5032358;28;20217;-87
2023/12/08 10:07:19;;;;;;;2.47;2.00;;;;;;;;;;5043800;28;20214;-87
2023/12/08 10:09:47;;;;;;;1.40;1.30;;;;;;;;;;5046361;28;20251;-87
2023/12/08 10:12:14;;;;;;;2.10;1.77;;;;;;;;;;5044761;28;20240;-87
2023/12/08 10:14:51;;;;;;;1.90;1.80;;;;;;;;;;5032250;28;20206;-87
2023/12/08 10:17:18;;;;;;;2.33;1.83;;;;;;;;;;5046641;28;20293;-87
2023/12/08 10:19:45;;;;;;;3.83;1.70;;;;;;;;;;5052000;28;20226;-87
2023/12/08 10:22:15;;;;;;;3.50;2.63;;;;;;;;;;5050934;28;20210;-88
2023/12/08 10:24:42;;;;;;;2.77;2.20;;;;;;;;;;5052089;28;20224;-87
2023/12/08 10:27:10;;;;;;;2.10;1.90;;;;;;;;;;5038638;28;20210;-88
2023/12/08 10:29:37;;;;;;;1.83;1.57;;;;;;;;;;5043214;28;20206;-88
2023/12/08 10:32:05;;;;;;;1.80;1.70;;;;;;;;;;5044895;28;20228;-87
2023/12/08 10:34:32;;;;;;;2.53;2.33;;;;;;;;;;5041242;28;20214;-88
2023/12/08 10:37:00;;;;;;;2.00;1.87;;;;;;;;;;5038503;28;20596;-88
2023/12/08 10:39:27;;;;;;;1.30;1.27;;;;;;;;;;5051894;28;20751;-87
2023/12/08 10:41:55;;;;;;;1.47;1.37;;;;;;;;;;5038281;28;20204;-88
2023/12/08 10:44:24;;;;;;;1.70;1.60;;;;;;;;;;5041711;28;20213;-87
2023/12/08 10:46:51;;;;;;;2.20;2.00;;;;;;;;;;5048877;28;20206;-87
2023/12/08 10:49:20;;;;;;;1.90;1.80;;;;;;;;;;5051696;28;20216;-87
2023/12/08 10:51:47;;;;;;;2.93;2.63;;;;;;;;;;5037947;28;20206;-87
2023/12/08 10:54:18;;;;;;;2.97;2.20;;;;;;;;;;5050283;28;20206;-87
2023/12/08 10:56:46;;;;;;;3.50;2.70;;;;;;;;;;5037925;28;20202;-87
2023/12/08 10:59:18;;;;;;;3.10;2.80;;;;;;;;;;5051179;28;20588;-86
2023/12/08 11:01:47;;;;;;;2.40;1.90;;;;;;;;;;5037913;28;20256;-87
2023/12/08 11:04:18;;;;;;;1.80;1.70;;;;;;;;;;5037857;28;20697;-86
2023/12/08 11:06:55;;;;;;;2.43;1.80;;;;;;;;;;5050784;28;20202;-87
2023/12/08 11:09:23;;;;;;;1.97;1.77;;;;;;;;;;5050515;28;20217;-87
2023/12/08 11:11:55;;;;;;;2.10;1.93;;;;;;;;;;5041832;28;20242;-87
2023/12/08 11:14:29;;;;;;;1.70;1.60;;;;;;;;;;5044461;28;20210;-87
2023/12/08 11:17:01;;;;;;;1.70;1.60;;;;;;;;;;5031345;28;20205;-87
2023/12/08 11:19:30;;;;;;;1.50;1.40;;;;;;;;;;5044581;28;20661;-87
2023/12/08 11:21:57;;;;;;;1.90;1.80;;;;;;;;;;5043457;28;20254;-87
2023/12/08 11:24:24;;;;;;;2.07;1.97;;;;;;;;;;5045129;28;20214;-87
2023/12/08 11:26:54;;;;;;;3.20;1.90;;;;;;;;;;5043484;28;20205;-88
2023/12/08 11:29:27;;;;;;;2.50;2.30;;;;;;;;;;5024752;28;20652;-87
2023/12/08 11:32:04;;;;;;;3.07;1.83;;;;;;;;;;5037877;28;20211;-87
2023/12/08 11:34:35;;;;;;;1.90;1.80;;;;;;;;;;5050928;28;20213;-87
2023/12/08 11:37:02;;;;;;;2.30;2.10;;;;;;;;;;5033859;28;20225;-87
2023/12/08 11:39:42;;;;;;;2.30;2.10;;;;;;;;;;5040806;28;20206;-87
2023/12/08 11:42:10;;;;;;;1.97;1.80;;;;;;;;;;5036881;28;20289;-87
2023/12/08 11:44:39;;;;;;;2.40;2.00;;;;;;;;;;5038969;28;20669;-87
2023/12/08 11:47:08;;;;;;;2.90;2.37;;;;;;;;;;5030589;28;20214;-87
2023/12/08 11:49:37;;;;;;;2.13;2.03;;;;;;;;;;5043903;28;20683;-87
2023/12/08 11:52:16;;;;;;;1.97;1.87;;;;;;;;;;5050882;27;20600;-87
2023/12/08 11:55:00;;;;;;;2.37;2.17;;;;;;;;;;5037263;28;20202;-86
2023/12/08 11:57:27;;;;;;;2.10;2.00;;;;;;;;;;5050357;28;20696;-87
2023/12/08 11:59:55;;;;;;;1.97;1.87;;;;;;;;;;5050281;28;20213;-87
2023/12/08 12:02:23;;;;;;;1.87;1.67;;;;;;;;;;5039225;28;20609;-87
2023/12/08 12:04:50;;;;;;;2.30;2.17;;;;;;;;;;5043505;28;20211;-87
2023/12/08 12:07:19;;;;;;;1.87;1.77;;;;;;;;;;5042373;28;20292;-87
2023/12/08 12:09:48;;;;;;;3.50;3.20;;;;;;;;;;5044469;28;20211;-86
2023/12/08 12:12:24;;;;;;;2.13;2.03;;;;;;;;;;5042921;28;20243;-86
2023/12/08 12:14:51;;;;;;;2.20;2.00;;;;;;;;;;5025173;28;20304;-87
2023/12/08 12:17:18;;;;;;;2.07;1.97;;;;;;;;;;5036477;28;20210;-87
2023/12/08 12:19:47;;;;;;;2.00;1.90;;;;;;;;;;5050652;27;20213;-87
2023/12/08 12:22:14;;;;;;;1.93;1.83;;;;;;;;;;5036803;28;20230;-87
2023/12/08 12:24:42;;;;;;;1.90;1.80;;;;;;;;;;5049217;28;20209;-87
2023/12/08 12:27:08;;;;;;;2.20;2.00;;;;;;;;;;5036410;28;20218;-87
2023/12/08 12:29:35;;;;;;;1.73;1.63;;;;;;;;;;5041945;28;20253;-88
2023/12/08 12:32:05;;;;;;;2.50;2.30;;;;;;;;;;5032611;28;20206;-87
2023/12/08 12:34:32;;;;;;;1.80;1.70;;;;;;;;;;5049834;28;20214;-88
2023/12/08 12:37:00;;;;;;;1.77;1.67;;;;;;;;;;5049643;27;20210;-88
2023/12/08 12:39:27;;;;;;;2.23;2.03;;;;;;;;;;5050069;28;20236;-88
2023/12/08 12:41:58;;;;;;;2.67;2.47;;;;;;;;;;5046140;28;20244;-87
2023/12/08 12:44:25;;;;;;;1.73;1.63;;;;;;;;;;5040907;28;20210;-88
2023/12/08 12:46:52;;;;;;;2.23;2.13;;;;;;;;;;5049976;28;20213;-88
2023/12/08 12:49:19;;;;;;;2.23;2.03;;;;;;;;;;5038866;28;20217;-88
2023/12/08 12:51:46;;;;;;;1.80;1.70;;;;;;;;;;5043347;28;20218;-89
2023/12/08 12:54:14;;;;;;;2.17;2.03;;;;;;;;;;5041134;28;20206;-88
2023/12/08 12:56:49;;;;;;;1.93;1.83;;;;;;;;;;5036586;28;20659;-88
2023/12/08 12:59:16;;;;;;;1.93;1.80;;;;;;;;;;5049286;28;20241;-88
2023/12/08 13:01:47;;;;;;;2.20;2.00;;;;;;;;;;5023027;28;20321;-88
2023/12/08 13:04:15;;;;;;;2.07;1.83;;;;;;;;;;5035319;28;20738;-87
2023/12/08 13:06:42;;;;;;;2.33;2.10;;;;;;;;;;5030277;28;20301;-88
2023/12/08 13:09:11;;;;;;;2.30;2.10;;;;;;;;;;5029270;28;20210;-88
2023/12/08 13:11:39;;;;;;;2.10;2.00;;;;;;;;;;5037412;28;20238;-88
2023/12/08 13:14:06;;;;;;;2.30;2.10;;;;;;;;;;5034591;28;20214;-89
2023/12/08 13:16:34;;;;;;;2.60;2.40;;;;;;;;;;5036848;28;20214;-88
2023/12/08 13:19:00;;;;;;;2.20;2.00;;;;;;;;;;5047626;28;20206;-89
2023/12/08 13:21:27;;;;;;;2.87;2.40;;;;;;;;;;5038266;28;20282;-87
2023/12/08 13:23:54;;;;;;;3.17;2.90;;;;;;;;;;5049140;28;20216;-89
2023/12/08 13:26:21;;;;;;;2.30;2.13;;;;;;;;;;5040136;28;20211;-90
2023/12/08 13:28:50;;;;;;;2.13;2.03;;;;;;;;;;5031783;28;20211;-88
2023/12/08 13:31:17;;;;;;;2.00;1.90;;;;;;;;;;5049124;28;20300;-88
2023/12/08 13:33:44;;;;;;;2.57;2.37;;;;;;;;;;5035774;28;20213;-89
2023/12/08 13:36:11;;;;;;;2.70;2.50;;;;;;;;;;5039268;28;20213;-88
2023/12/08 13:38:38;;;;;;;2.57;2.37;;;;;;;;;;5032543;28;20225;-89
2023/12/08 13:41:05;;;;;;;2.53;2.33;;;;;;;;;;5049445;28;20229;-88
2023/12/08 13:43:32;;;;;;;2.53;2.33;;;;;;;;;;5048623;28;20213;-88
2023/12/08 13:46:01;;;;;;;3.00;2.53;;;;;;;;;;5038504;28;20215;-88
2023/12/08 13:48:27;;;;;;;2.60;2.40;;;;;;;;;;5032683;28;20205;-87
2023/12/08 13:50:54;;;;;;;2.47;2.27;;;;;;;;;;5038111;28;20202;-88
2023/12/08 13:53:21;;;;;;;3.03;2.27;;;;;;;;;;5042723;28;20661;-89
2023/12/08 13:55:48;;;;;;;3.20;2.90;;;;;;;;;;5040192;28;20245;-88
2023/12/08 13:58:15;;;;;;;2.63;2.43;;;;;;;;;;5030953;28;20225;-88
2023/12/08 14:00:41;;;;;;;2.40;2.20;;;;;;;;;;5028619;28;20234;-88
2023/12/08 14:03:09;;;;;;;2.90;2.63;;;;;;;;;;5042362;28;20206;-88
2023/12/08 14:05:36;;;;;;;3.77;3.37;;;;;;;;;;5041079;28;20263;-89
2023/12/08 14:08:04;;;;;;;2.80;2.60;;;;;;;;;;5035324;28;20206;-88
2023/12/08 14:10:30;;;;;;;3.10;2.90;;;;;;;;;;5048753;28;20250;-87
2023/12/08 14:12:58;;;;;;;2.63;2.43;;;;;;;;;;5035559;28;20206;-87
2023/12/08 14:15:24;;;;;;;2.63;2.37;;;;;;;;;;5048467;28;20254;-89
2023/12/08 14:17:51;;;;;;;2.57;2.37;;;;;;;;;;5049070;28;20202;-88
2023/12/08 14:20:19;;;;;;;3.00;2.70;;;;;;;;;;5035842;28;20218;-88
2023/12/08 14:22:48;;;;;;;3.27;2.97;;;;;;;;;;5048053;28;20222;-88
2023/12/08 14:25:15;;;;;;;2.90;2.70;;;;;;;;;;5034574;28;20228;-87
2023/12/08 14:27:42;;;;;;;2.60;2.40;;;;;;;;;;5028706;28;20259;-87
2023/12/08 14:30:10;;;;;;;2.80;2.60;;;;;;;;;;5031608;28;20214;-87
2023/12/08 14:32:38;;;;;;;3.30;3.00;;;;;;;;;;5031989;28;20230;-87
2023/12/08 14:35:06;;;;;;;2.67;2.47;;;;;;;;;;5032679;28;20267;-87
2023/12/08 14:37:34;;;;;;;3.07;2.77;;;;;;;;;;5043984;27;20216;-87
2023/12/08 14:40:04;;;;;;;3.27;2.93;;;;;;;;;;5031631;28;20210;-86
2023/12/08 14:42:30;;;;;;;3.40;3.10;;;;;;;;;;5039981;28;20222;-87
2023/12/08 14:44:57;;;;;;;3.10;2.80;;;;;;;;;;5037680;28;20219;-87
2023/12/08 14:47:24;;;;;;;2.77;2.57;;;;;;;;;;5051414;28;20206;-87